createdAt,value
2022-11-05T00:01:00.970Z,24.08
2022-11-05T00:03:46.452Z,22.15
2022-11-05T00:06:31.824Z,22.92
2022-11-05T00:09:17.281Z,26.20
2022-11-05T00:12:04.157Z,25.27
2022-11-05T00:14:49.773Z,20.75
2022-11-05T00:17:17.917Z,23.83
2022-11-05T00:19:46.201Z,24.10
2022-11-05T00:22:31.769Z,26.00
2022-11-05T00:25:22.452Z,26.40
2022-11-05T00:27:53.603Z,30.02
2022-11-05T00:30:23.791Z,29.00
2022-11-05T00:32:53.722Z,28.38
2022-11-05T00:35:23.667Z,23.95
2022-11-05T00:37:54.355Z,28.77
2022-11-05T00:40:22.742Z,25.10
2022-11-05T00:43:10.041Z,24.85
2022-11-05T00:45:38.899Z,29.95
2022-11-05T00:48:24.798Z,28.25
2022-11-05T00:50:53.142Z,33.63
2022-11-05T00:53:22.266Z,25.55
2022-11-05T00:55:54.653Z,26.58
2022-11-05T00:58:27.273Z,26.80
2022-11-05T01:00:57.321Z,24.65
2022-11-05T01:03:29.562Z,30.67
2022-11-05T01:05:59.317Z,24.17
2022-11-05T01:08:29.026Z,22.25
2022-11-05T01:10:59.085Z,27.63
2022-11-05T01:13:31.209Z,28.67
2022-11-05T01:15:59.550Z,26.83
2022-11-05T01:18:27.767Z,27.63
2022-11-05T01:20:56.046Z,31.35
2022-11-05T01:23:24.252Z,24.50
2022-11-05T01:25:52.532Z,27.50
2022-11-05T01:28:20.872Z,30.33
2022-11-05T01:30:58.719Z,28.63
2022-11-05T01:33:26.979Z,29.23
2022-11-05T01:35:55.359Z,26.05
2022-11-05T01:38:23.616Z,25.60
2022-11-05T01:40:51.858Z,26.20
2022-11-05T01:43:21.924Z,24.63
2022-11-05T01:46:01.075Z,23.83
2022-11-05T01:48:34.174Z,28.08
2022-11-05T01:51:06.354Z,34.75
2022-11-05T01:53:38.602Z,26.88
2022-11-05T01:56:23.962Z,23.98
2022-11-05T01:59:04.264Z,27.30
2022-11-05T02:01:37.152Z,26.35
2022-11-05T02:04:17.681Z,29.40
2022-11-05T02:06:47.407Z,31.27
2022-11-05T02:09:21.809Z,25.50
2022-11-05T02:11:50.981Z,30.40
2022-11-05T02:14:19.430Z,34.17
2022-11-05T02:16:53.097Z,24.83
2022-11-05T02:19:56.785Z,30.50
2022-11-05T02:22:57.671Z,24.65
2022-11-05T02:25:58.700Z,28.77
2022-11-05T02:28:55.882Z,27.85
2022-11-05T02:31:34.102Z,25.35
2022-11-05T02:34:08.967Z,32.25
2022-11-05T02:36:46.530Z,25.50
2022-11-05T02:39:27.838Z,26.33
2022-11-05T02:42:05.436Z,23.15
2022-11-05T02:44:47.652Z,28.27
2022-11-05T02:47:27.950Z,26.13
2022-11-05T02:50:04.122Z,31.13
2022-11-05T02:52:39.121Z,31.63
2022-11-05T02:55:17.770Z,32.50
2022-11-05T02:57:48.456Z,29.95
2022-11-05T03:00:42.734Z,30.65
2022-11-05T03:03:20.401Z,28.60
2022-11-05T03:06:00.119Z,28.42
2022-11-05T03:08:41.824Z,29.50
2022-11-05T03:11:16.806Z,26.98
2022-11-05T03:14:18.699Z,28.90
2022-11-05T03:16:52.256Z,29.67
2022-11-05T03:19:28.030Z,26.88
2022-11-05T03:22:02.609Z,31.52
2022-11-05T03:24:37.876Z,27.85
2022-11-05T03:27:10.471Z,30.30
2022-11-05T03:29:43.809Z,32.47
2022-11-05T03:32:13.736Z,30.02
2022-11-05T03:34:47.066Z,30.38
2022-11-05T03:37:18.083Z,29.90
2022-11-05T03:39:51.907Z,33.28
2022-11-05T03:42:22.620Z,27.23
2022-11-05T03:44:54.629Z,28.95
2022-11-05T03:47:27.470Z,34.83
2022-11-05T03:50:04.061Z,24.98
2022-11-05T03:52:38.738Z,34.08
2022-11-05T03:55:07.970Z,33.33
2022-11-05T03:57:39.872Z,35.65
2022-11-05T04:00:09.919Z,29.77
2022-11-05T04:02:41.042Z,33.22
2022-11-05T04:05:10.848Z,30.85
2022-11-05T04:07:56.232Z,31.75
2022-11-05T04:10:41.692Z,35.17
2022-11-05T04:13:26.796Z,33.85
2022-11-05T04:16:13.878Z,35.20
2022-11-05T04:18:42.797Z,32.42
2022-11-05T04:21:30.110Z,35.67
2022-11-05T04:24:10.610Z,30.48
2022-11-05T04:26:40.048Z,32.83
2022-11-05T04:29:26.518Z,37.90
2022-11-05T04:31:55.271Z,35.42
2022-11-05T04:34:29.490Z,35.30
2022-11-05T04:36:59.510Z,32.67
2022-11-05T04:39:27.699Z,43.75
2022-11-05T04:41:55.898Z,39.63
2022-11-05T04:44:24.076Z,35.47
2022-11-05T04:46:52.264Z,33.97
2022-11-05T04:49:20.521Z,37.63
2022-11-05T04:51:48.675Z,36.17
2022-11-05T04:54:18.223Z,42.10
2022-11-05T04:56:46.399Z,39.55
2022-11-05T04:59:14.668Z,36.80
2022-11-05T05:01:43.000Z,43.65
2022-11-05T05:04:11.149Z,39.03
2022-11-05T05:06:39.402Z,44.63
2022-11-05T05:09:07.556Z,45.60
2022-11-05T05:11:37.112Z,39.75
2022-11-05T05:14:05.418Z,36.90
2022-11-05T05:16:33.607Z,40.45
2022-11-05T05:19:01.767Z,44.25
2022-11-05T05:21:41.600Z,40.03
2022-11-05T05:24:11.482Z,50.28
2022-11-05T05:26:43.139Z,50.63
2022-11-05T05:29:12.368Z,45.95
2022-11-05T05:31:41.294Z,44.17
2022-11-05T05:34:12.024Z,47.50
2022-11-05T05:36:40.192Z,46.50
2022-11-05T05:39:10.810Z,52.55
2022-11-05T05:41:40.576Z,51.67
2022-11-05T05:44:08.786Z,49.33
2022-11-05T05:46:36.938Z,42.47
2022-11-05T05:49:09.547Z,53.38
2022-11-05T05:51:40.612Z,46.17
2022-11-05T05:54:08.838Z,53.65
2022-11-05T05:56:36.998Z,56.88
2022-11-05T05:59:08.269Z,52.78
2022-11-05T06:01:36.570Z,64.68
2022-11-05T06:04:04.880Z,55.65
2022-11-05T06:06:33.115Z,65.43
2022-11-05T06:09:01.286Z,60.97
2022-11-05T06:11:29.557Z,56.90
2022-11-05T06:13:57.797Z,53.03
2022-11-05T06:16:27.750Z,52.75
2022-11-05T06:18:55.918Z,49.25
2022-11-05T06:21:24.070Z,52.97
2022-11-05T06:23:52.234Z,54.97
2022-11-05T06:26:21.041Z,55.13
2022-11-05T06:28:49.200Z,51.50
2022-11-05T06:31:17.360Z,50.60
2022-11-05T06:33:47.306Z,50.30
2022-11-05T06:36:17.219Z,54.45
2022-11-05T06:38:45.404Z,57.83
2022-11-05T06:41:16.302Z,57.53
2022-11-05T06:43:44.735Z,61.78
2022-11-05T06:46:13.169Z,61.15
2022-11-05T06:48:41.660Z,57.05
2022-11-05T06:51:11.552Z,59.53
2022-11-05T06:53:39.781Z,59.50
2022-11-05T06:56:09.115Z,62.67
2022-11-05T06:58:37.278Z,60.13
2022-11-05T07:01:08.106Z,63.58
2022-11-05T07:03:37.124Z,70.35
2022-11-05T07:06:07.290Z,72.28
2022-11-05T07:08:38.100Z,64.85
2022-11-05T07:11:07.177Z,62.45
2022-11-05T07:13:35.362Z,65.90
2022-11-05T07:16:03.549Z,68.35
2022-11-05T07:18:31.695Z,66.22
2022-11-05T07:21:01.022Z,62.00
2022-11-05T07:45:25.609Z,70.25
2022-11-05T07:47:56.931Z,59.78
2022-11-05T07:50:28.470Z,60.15
2022-11-05T07:53:02.454Z,62.33
2022-11-05T07:55:31.169Z,72.43
2022-11-05T07:58:00.271Z,67.43
2022-11-05T08:00:31.581Z,75.57
2022-11-05T08:03:08.101Z,64.45
2022-11-05T08:05:39.347Z,55.30
2022-11-05T08:08:09.635Z,59.17
2022-11-05T08:10:38.203Z,66.25
2022-11-05T08:13:10.161Z,66.43
2022-11-05T08:15:38.858Z,60.15
2022-11-05T08:18:14.546Z,61.97
2022-11-05T08:20:44.958Z,61.15
2022-11-05T08:23:14.514Z,57.13
2022-11-05T08:25:43.226Z,66.32
2022-11-05T08:28:14.559Z,62.53
2022-11-05T08:30:43.509Z,67.85
2022-11-05T08:33:14.608Z,67.22
2022-11-05T08:35:43.467Z,56.15
2022-11-05T08:38:14.152Z,67.20
2022-11-05T08:40:43.979Z,65.15
2022-11-05T08:43:15.654Z,59.97
2022-11-05T08:45:44.320Z,59.75
2022-11-05T08:48:15.602Z,72.43
2022-11-05T08:50:44.220Z,73.88
2022-11-05T08:53:13.633Z,64.15
2022-11-05T08:55:42.257Z,66.80
2022-11-05T08:58:15.233Z,76.32
2022-11-05T09:00:45.057Z,72.68
2022-11-05T09:03:16.127Z,61.45
2022-11-05T09:05:47.850Z,66.80
2022-11-05T09:08:18.934Z,67.18
2022-11-05T09:10:50.679Z,57.67
2022-11-05T09:13:20.325Z,64.97
2022-11-05T09:15:50.011Z,66.75
2022-11-05T09:18:20.924Z,61.75
2022-11-05T09:20:49.591Z,62.20
2022-11-05T09:23:19.567Z,73.70
2022-11-05T09:25:48.318Z,65.75
2022-11-05T09:28:20.425Z,65.28
2022-11-05T09:30:50.288Z,70.45
2022-11-05T09:33:21.577Z,73.03
2022-11-05T09:35:49.979Z,62.10
2022-11-05T09:38:18.582Z,68.25
2022-11-05T09:40:55.917Z,70.55
2022-11-05T09:43:31.699Z,72.20
2022-11-05T09:46:05.239Z,71.88
2022-11-05T09:49:04.272Z,66.25
2022-11-05T09:51:38.049Z,71.50
2022-11-05T09:54:06.984Z,66.50
2022-11-05T09:56:38.846Z,65.45
2022-11-05T09:59:15.592Z,66.28
2022-11-05T10:01:46.373Z,67.93
2022-11-05T10:04:18.975Z,69.13
2022-11-05T10:06:57.049Z,64.20
2022-11-05T10:09:28.975Z,74.50
2022-11-05T10:12:02.677Z,63.08
2022-11-05T10:14:37.708Z,66.10
2022-11-05T10:17:13.652Z,75.18
2022-11-05T10:19:46.261Z,63.00
2022-11-05T10:22:23.894Z,67.25
2022-11-05T10:24:53.491Z,58.85
2022-11-05T10:27:26.560Z,72.13
2022-11-05T10:29:55.380Z,65.07
2022-11-05T10:32:30.444Z,66.13
2022-11-05T10:35:02.063Z,76.38
2022-11-05T10:37:36.959Z,71.22
2022-11-05T10:40:17.393Z,67.55
2022-11-05T10:42:57.358Z,66.80
2022-11-05T10:45:34.838Z,70.25
2022-11-05T10:48:15.792Z,88.60
2022-11-05T10:50:45.957Z,75.90
2022-11-05T10:53:19.767Z,89.53
2022-11-05T10:55:49.878Z,79.07
2022-11-05T10:58:22.679Z,74.65
2022-11-05T11:01:11.803Z,77.35
2022-11-05T11:03:44.952Z,79.40
2022-11-05T11:06:25.561Z,75.13
2022-11-05T11:08:57.933Z,83.15
2022-11-05T11:11:29.712Z,86.20
2022-11-05T11:14:04.155Z,74.38
2022-11-05T11:16:38.016Z,70.47
2022-11-05T11:19:25.624Z,72.03
2022-11-05T11:22:19.497Z,73.40
2022-11-05T11:24:55.444Z,84.38
2022-11-05T11:27:26.025Z,73.00
2022-11-05T11:29:59.547Z,82.78
2022-11-05T11:32:33.316Z,74.75
2022-11-05T11:35:02.423Z,82.80
2022-11-05T11:37:34.680Z,78.22
2022-11-05T11:40:13.115Z,74.75
2022-11-05T11:42:45.794Z,78.90
2022-11-05T11:45:19.764Z,76.32
2022-11-05T11:47:50.645Z,80.05
2022-11-05T11:50:36.731Z,78.55
2022-11-05T11:53:47.138Z,75.35
2022-11-05T11:56:20.363Z,78.57
2022-11-05T11:58:50.689Z,77.32
2022-11-05T12:01:52.169Z,81.18
2022-11-05T12:04:44.156Z,86.70
2022-11-05T12:07:29.762Z,81.80
2022-11-05T12:10:16.759Z,77.10
2022-11-05T12:12:57.530Z,75.85
2022-11-05T12:15:37.533Z,68.80
2022-11-05T12:18:27.066Z,78.72
2022-11-05T12:21:12.630Z,80.50
2022-11-05T12:24:33.141Z,79.43
2022-11-05T12:27:14.482Z,81.72
2022-11-05T12:30:05.315Z,83.32
2022-11-05T12:33:04.736Z,91.35
2022-11-05T12:35:46.985Z,85.35
2022-11-05T12:38:28.837Z,85.90
2022-11-05T12:41:13.101Z,83.18
2022-11-05T12:43:56.827Z,89.70
2022-11-05T12:46:34.958Z,84.10
2022-11-05T12:49:31.808Z,80.13
2022-11-05T12:52:32.000Z,91.00
2022-11-05T12:55:05.630Z,93.57
2022-11-05T12:57:40.783Z,93.40
2022-11-05T13:00:18.853Z,95.72
2022-11-05T13:03:10.001Z,114.70
2022-11-05T13:05:42.298Z,89.05
2022-11-05T13:08:15.922Z,110.38
2022-11-05T13:10:49.378Z,106.75
2022-11-05T13:13:27.675Z,99.70
2022-11-05T13:15:58.768Z,90.80
2022-11-05T13:18:49.558Z,105.97
2022-11-05T13:21:20.852Z,95.80
2022-11-05T13:23:54.463Z,87.85
2022-11-05T13:26:28.873Z,97.35
2022-11-05T13:29:03.396Z,98.55
2022-11-05T13:31:35.330Z,94.82
2022-11-05T13:34:10.470Z,83.07
2022-11-05T13:37:04.841Z,87.97
2022-11-05T13:39:37.650Z,100.03
2022-11-05T13:42:41.345Z,107.47
2022-11-05T13:45:35.524Z,100.65
2022-11-05T13:48:51.338Z,93.85
2022-11-05T13:51:58.157Z,86.95
2022-11-05T13:55:05.139Z,99.13
2022-11-05T13:58:20.923Z,89.45
2022-11-05T14:01:02.576Z,105.45
2022-11-05T14:03:31.598Z,93.45
2022-11-05T14:06:05.324Z,96.00
2022-11-05T14:08:41.141Z,99.15
2022-11-05T14:11:21.913Z,109.03
2022-11-05T14:13:58.898Z,107.95
2022-11-05T14:16:30.148Z,104.40
2022-11-05T14:19:30.290Z,104.20
2022-11-05T14:21:59.690Z,103.47
2022-11-05T14:24:44.323Z,112.82
2022-11-05T14:27:45.461Z,124.72
2022-11-05T14:30:44.925Z,109.82
2022-11-05T14:33:33.780Z,97.43
2022-11-05T14:36:31.399Z,116.35
2022-11-05T14:39:19.556Z,107.80
2022-11-05T14:42:03.971Z,102.63
2022-11-05T14:44:35.600Z,110.57
2022-11-05T14:47:08.925Z,117.32
2022-11-05T14:49:43.372Z,111.13
2022-11-05T14:52:32.554Z,110.03
2022-11-05T14:55:01.260Z,117.60
2022-11-05T14:58:21.865Z,114.43
2022-11-05T15:00:51.025Z,97.82
2022-11-05T15:07:30.837Z,86.55
2022-11-05T15:10:08.952Z,103.50
2022-11-05T15:12:42.980Z,101.53
2022-11-05T15:15:27.969Z,121.00
2022-11-05T15:18:08.259Z,110.70
2022-11-05T15:20:40.734Z,122.15
2022-11-05T15:23:17.694Z,110.45
2022-11-05T15:26:05.930Z,120.32
2022-11-05T15:28:39.010Z,114.55
2022-11-05T15:31:35.733Z,133.23
2022-11-05T15:34:22.042Z,129.98
2022-11-05T15:37:04.905Z,126.68
2022-11-05T15:39:39.527Z,106.25
2022-11-05T15:42:14.716Z,115.25
2022-11-05T15:44:46.051Z,111.45
2022-11-05T15:47:21.280Z,136.95
2022-11-05T15:49:54.939Z,108.00
2022-11-05T15:52:25.176Z,122.63
2022-11-05T15:55:15.723Z,123.10
2022-11-05T15:57:51.048Z,144.27
2022-11-05T16:00:22.831Z,119.13
2022-11-05T16:02:56.496Z,121.75
2022-11-05T16:05:26.857Z,147.32
2022-11-05T16:07:55.574Z,132.70
2022-11-05T16:10:33.748Z,122.75
2022-11-05T16:13:37.810Z,141.48
2022-11-05T16:16:26.513Z,121.18
2022-11-05T16:18:55.345Z,149.05
2022-11-05T16:21:26.193Z,138.82
2022-11-05T16:23:56.865Z,143.48
2022-11-05T16:27:01.351Z,131.75
2022-11-05T16:29:31.000Z,119.05
2022-11-05T16:32:03.360Z,131.52
2022-11-05T16:34:40.847Z,139.73
2022-11-05T16:37:13.734Z,124.78
2022-11-05T16:44:19.460Z,137.57
2022-11-05T16:47:19.832Z,137.90
2022-11-05T17:07:27.853Z,115.28
2022-11-05T17:22:33.429Z,112.53
2022-11-05T17:30:02.214Z,120.65
2022-11-05T17:44:05.518Z,164.98
2022-11-05T17:46:38.928Z,159.32
2022-11-05T17:58:05.841Z,136.68
2022-11-05T18:00:43.197Z,118.13
2022-11-05T18:03:19.051Z,135.07
2022-11-05T18:05:51.519Z,125.85
2022-11-05T18:08:20.041Z,118.88
2022-11-05T18:14:32.219Z,110.80
2022-11-05T18:19:59.660Z,92.03
2022-11-05T18:22:29.635Z,108.03
2022-11-05T18:24:58.134Z,102.78
2022-11-05T18:27:37.580Z,94.40
2022-11-05T18:30:31.806Z,71.57
2022-11-05T18:33:15.439Z,62.28
2022-11-05T18:35:57.266Z,66.05
2022-11-05T18:39:08.607Z,56.22
2022-11-05T18:41:39.257Z,51.05
2022-11-05T18:44:15.138Z,63.60
2022-11-05T18:47:01.658Z,61.20
2022-11-05T18:50:24.374Z,60.85
2022-11-05T18:53:19.304Z,54.63
2022-11-05T18:56:06.757Z,47.45
2022-11-05T18:58:35.856Z,47.47
2022-11-05T19:01:13.928Z,49.97
2022-11-05T19:03:43.437Z,45.50
2022-11-05T19:06:12.070Z,42.33
2022-11-05T19:08:40.549Z,46.42
2022-11-05T19:11:26.373Z,51.13
2022-11-05T19:13:54.992Z,37.42
2022-11-05T19:16:27.051Z,38.17
2022-11-05T19:18:59.383Z,42.35
2022-11-05T19:21:28.592Z,41.90
2022-11-05T19:24:00.166Z,43.47
2022-11-05T19:26:46.696Z,39.55
2022-11-05T19:29:15.134Z,43.80
2022-11-05T19:31:43.536Z,36.28
2022-11-05T19:34:13.344Z,38.05
2022-11-05T19:36:42.040Z,43.03
2022-11-05T19:39:15.981Z,45.58
2022-11-05T19:42:03.608Z,46.58
2022-11-05T19:44:32.490Z,42.78
2022-11-05T19:47:00.798Z,41.40
2022-11-05T19:49:29.295Z,50.38
2022-11-05T19:51:57.953Z,50.38
2022-11-05T19:54:26.479Z,57.17
2022-11-05T19:56:54.819Z,49.00
2022-11-05T19:59:24.528Z,56.10
2022-11-05T20:01:55.080Z,50.67
2022-11-05T20:04:23.780Z,64.65
2022-11-05T20:06:52.064Z,60.45
2022-11-05T20:09:22.649Z,54.90
2022-11-05T20:11:53.913Z,56.03
2022-11-05T20:14:22.287Z,53.20
2022-11-05T20:16:52.144Z,67.53
2022-11-05T20:19:22.977Z,61.95
2022-11-05T20:21:54.324Z,63.83
2022-11-05T20:24:25.242Z,53.97
2022-11-05T20:26:54.999Z,59.72
2022-11-05T20:29:27.814Z,78.32
2022-11-05T20:32:29.553Z,70.85
2022-11-05T20:35:14.428Z,68.25
2022-11-05T20:37:43.283Z,63.38
2022-11-05T20:40:14.891Z,60.83
2022-11-05T20:42:44.233Z,65.60
2022-11-05T20:45:12.876Z,61.90
2022-11-05T20:47:41.700Z,64.20
2022-11-05T20:50:11.080Z,61.05
2022-11-05T20:52:41.053Z,66.10
2022-11-05T20:55:10.440Z,66.88
2022-11-05T20:57:39.795Z,68.50
2022-11-05T21:00:10.623Z,63.63
2022-11-05T21:02:40.643Z,67.35
2022-11-05T21:05:09.664Z,69.38
2022-11-05T21:07:38.146Z,81.50
2022-11-05T21:10:08.654Z,72.88
2022-11-05T21:12:36.942Z,70.28
2022-11-05T21:15:25.319Z,60.17
2022-11-05T21:17:53.944Z,63.42
2022-11-05T21:20:22.724Z,58.33
2022-11-05T21:22:51.510Z,64.82
2022-11-05T21:25:21.455Z,66.80
2022-11-05T21:27:50.464Z,46.83
2022-11-05T21:30:19.078Z,58.50
2022-11-05T21:32:47.266Z,60.25
2022-11-05T21:35:15.925Z,61.13
2022-11-05T21:37:44.823Z,57.65
2022-11-05T21:40:13.506Z,57.40
2022-11-05T21:42:46.850Z,55.85
2022-11-05T21:45:18.598Z,63.03
2022-11-05T21:47:50.095Z,62.40
2022-11-05T21:50:21.873Z,51.75
2022-11-05T21:53:08.200Z,49.30
2022-11-05T21:55:54.259Z,65.97
2022-11-05T21:58:42.092Z,59.33
2022-11-05T22:01:10.642Z,58.63
2022-11-05T22:03:39.524Z,61.58
2022-11-05T22:06:08.173Z,54.45
2022-11-05T22:08:36.550Z,71.13
2022-11-05T22:11:05.124Z,59.53
2022-11-05T22:13:38.913Z,60.92
2022-11-05T22:16:08.119Z,62.33
2022-11-05T22:18:36.624Z,55.90
2022-11-05T22:21:05.160Z,63.88
2022-11-05T22:23:33.531Z,51.45
2022-11-05T22:26:02.297Z,54.97
2022-11-05T22:28:31.296Z,51.83
2022-11-05T22:31:00.933Z,56.17
2022-11-05T22:33:29.173Z,49.78
2022-11-05T22:35:58.354Z,62.58
2022-11-05T22:38:34.712Z,64.20
2022-11-05T22:41:08.696Z,49.53
2022-11-05T22:43:37.277Z,60.58
2022-11-05T22:46:09.501Z,47.92
2022-11-05T22:48:38.840Z,49.55
2022-11-05T22:51:11.485Z,60.10
2022-11-05T22:53:41.555Z,55.47
2022-11-05T22:56:11.962Z,54.80
2022-11-05T22:58:40.899Z,50.70
2022-11-05T23:01:15.668Z,47.45
2022-11-05T23:03:45.554Z,54.20
2022-11-05T23:06:31.237Z,57.38
2022-11-05T23:09:17.743Z,46.90
2022-11-05T23:11:49.672Z,55.38
2022-11-05T23:14:18.212Z,44.75
2022-11-05T23:17:05.250Z,55.00
2022-11-05T23:19:51.376Z,54.60
2022-11-05T23:22:39.175Z,47.05
2022-11-05T23:25:10.142Z,38.65
2022-11-05T23:27:58.393Z,50.22
2022-11-05T23:30:28.052Z,43.03
2022-11-05T23:32:56.688Z,42.97
2022-11-05T23:35:38.924Z,43.50
2022-11-05T23:38:24.505Z,60.40
2022-11-05T23:41:09.915Z,46.28
2022-11-05T23:43:55.878Z,52.35
2022-11-05T23:46:42.836Z,57.78
2022-11-05T23:49:12.464Z,52.35
2022-11-05T23:51:40.697Z,44.70
2022-11-05T23:54:09.343Z,38.00
2022-11-05T23:56:37.679Z,47.88
2022-11-05T23:59:06.430Z,34.35
